Alan T — WDC9571 — position and weather

sailwx.info

Track history (hours):
 
Tides and Currents Weather Stations Pressure Air Temp Water Temp Dewpoint Dewpoint Depression Visibility Wind Speed Wind Dir Waves Ship Positions

Alan T

Owner: SO CAL SHIP SERVICES, INC, TERMINAL ISLAND, CA. More information available from US FCC via Universal Licensing System and Coast Guard Vessel Documentation Center.

Last reported at 2017-Oct-19 16:00 UTC. Time now 2017-Oct-19 16:13 UTC.
Position N 34°20' W 119°34'.

Length 30 m; draft 2.5 m.

Type: Ship (hazmat cat B). MMSI: 367104060.

Date/timePositionNaut miles runAvg speedWind from/ knotsBaromVisibWave heightAir tempDewpointWater temp
2017-Oct-19 16:00N 34°20' W 119°34'4 8.3
2017-Oct-19 15:30N 34°23' W 119°30'1 1.7
2017-Oct-19 15:00N 34°22' W 119°31'612.7
2017-Oct-19 14:30N 34°17' W 119°36'3 5.0
2017-Oct-19 13:59N 34°20' W 119°36'511.4
2017-Oct-19 13:30N 34°23' W 119°30'0 0.4
2017-Oct-19 13:00N 34°23' W 119°30'0 0.4
2017-Oct-19 12:31N 34°23' W 119°31'611.8
2017-Oct-19 12:00N 34°20' W 119°37'0 0.9
2017-Oct-19 11:29N 34°20' W 119°36'0 0.0
2017-Oct-19 11:00N 34°20' W 119°36'0 0.0
2017-Oct-19 10:29N 34°20' W 119°36'0 0.0
2017-Oct-19 10:00N 34°20' W 119°36'0 0.0
2017-Oct-19 09:30N 34°20' W 119°36'0 0.1
2017-Oct-19 08:59N 34°20' W 119°36'0 0.0
2017-Oct-19 08:30N 34°20' W 119°36'0 0.0
2017-Oct-19 08:00N 34°20' W 119°36'0 0.0
2017-Oct-19 07:30N 34°20' W 119°36'0 0.0
2017-Oct-19 07:00N 34°20' W 119°36'1 1.0
2017-Oct-19 06:29N 34°20' W 119°37'1 1.1
2017-Oct-19 06:00N 34°20' W 119°36'0 0.0
2017-Oct-19 05:30N 34°20' W 119°36'0 0.0
2017-Oct-19 05:00N 34°20' W 119°36'0 0.0
2017-Oct-19 04:30N 34°20' W 119°36'1 1.8
2017-Oct-19 04:00N 34°20' W 119°37'3 5.9
2017-Oct-19 03:30N 34°20' W 119°34'0 0.0
2017-Oct-19 03:00N 34°20' W 119°34'3 5.4
2017-Oct-19 02:30N 34°22' W 119°31'510.7
2017-Oct-19 02:01N 34°20' W 119°37'611.5
2017-Oct-19 01:31N 34°22' W 119°31'1 1.3
2017-Oct-19 01:00N 34°23' W 119°31'2 4.5
2017-Oct-19 00:30N 34°21' W 119°32'3 5.4
2017-Oct-19 00:00N 34°20' W 119°35'5 9.7
2017-Oct-18 23:30N 34°23' W 119°30'611.6
2017-Oct-18 23:00N 34°20' W 119°36'1 1.4
2017-Oct-18 22:30N 34°19' W 119°37'2 4.9
2017-Oct-18 22:00N 34°17' W 119°35'3 6.3
2017-Oct-18 21:30N 34°20' W 119°34'4 7.0
2017-Oct-18 21:00N 34°20' W 119°38'1 2.8
2017-Oct-18 20:30N 34°20' W 119°36'0 0.2
2017-Oct-18 20:00N 34°20' W 119°36'0 0.8
2017-Oct-18 19:30N 34°20' W 119°37'0 0.0
2017-Oct-18 19:00N 34°20' W 119°37'1 1.1
2017-Oct-18 18:30N 34°20' W 119°37'0 0.0
2017-Oct-18 18:00N 34°20' W 119°37'0 0.1
2017-Oct-18 17:30N 34°20' W 119°37'0 0.7
2017-Oct-18 17:00N 34°20' W 119°38'0 0.6
2017-Oct-18 16:30N 34°20' W 119°37'3 6.1
2017-Oct-18 16:00N 34°20' W 119°34'4 8.1
2017-Oct-18 15:30N 34°23' W 119°30'4 8.1
2017-Oct-18 15:00N 34°20' W 119°34'2 1.8
2017-Oct-18 14:00N 34°20' W 119°36'510.6
2017-Oct-18 13:30N 34°23' W 119°30'0 0.2
2017-Oct-18 13:00N 34°23' W 119°30'0 0.0
2017-Oct-18 12:30N 34°23' W 119°30'511.3
2017-Oct-18 12:01N 34°20' W 119°36'2 3.1
2017-Oct-18 11:30N 34°20' W 119°38'0 0.0
2017-Oct-18 10:59N 34°20' W 119°38'0 0.0
2017-Oct-18 10:30N 34°20' W 119°38'0 0.0
2017-Oct-18 09:59N 34°20' W 119°38'0 0.0
2017-Oct-18 09:30N 34°20' W 119°38'0 0.0
2017-Oct-18 09:00N 34°20' W 119°38'0 1.0
2017-Oct-18 08:29N 34°20' W 119°37'0 0.5
2017-Oct-18 08:00N 34°20' W 119°38'0 0.5
2017-Oct-18 07:30N 34°20' W 119°38'1 1.8
2017-Oct-18 07:00N 34°20' W 119°37'1 1.8
2017-Oct-18 06:30N 34°20' W 119°38'0 0.0
2017-Oct-18 06:00N 34°20' W 119°38'0 0.0
2017-Oct-18 05:29N 34°20' W 119°38'0 0.0
2017-Oct-18 05:00N 34°20' W 119°38'0 0.0
2017-Oct-18 04:30N 34°20' W 119°38'0 0.0
2017-Oct-18 03:59N 34°20' W 119°38'0 0.0
2017-Oct-18 03:30N 34°20' W 119°38'1 2.4
2017-Oct-18 03:00N 34°20' W 119°37'4 8.8
2017-Oct-18 02:30N 34°22' W 119°32'4 8.0
2017-Oct-18 02:00N 34°20' W 119°36'5 9.6
2017-Oct-18 01:29N 34°23' W 119°31'1 1.6
2017-Oct-18 00:59N 34°23' W 119°30'1 1.6
2017-Oct-18 00:30N 34°23' W 119°31'611.4
2017-Oct-18 00:00N 34°20' W 119°36'0 0.9
2017-Oct-17 23:30N 34°20' W 119°37'611.4
2017-Oct-17 23:01N 34°23' W 119°31'4 7.5
2017-Oct-17 22:30N 34°20' W 119°34'2 5.1
2017-Oct-17 22:01N 34°18' W 119°36'510.2
2017-Oct-17 21:30N 34°22' W 119°32'2 3.2
2017-Oct-17 21:00N 34°23' W 119°31'612.1
2017-Oct-17 20:30N 34°20' W 119°37'0 0.4
2017-Oct-17 20:00N 34°20' W 119°37'0 0.7
2017-Oct-17 19:30N 34°20' W 119°37'1 1.2
2017-Oct-17 19:00N 34°20' W 119°38'1 1.1
2017-Oct-17 18:30N 34°20' W 119°37'1 2.1
2017-Oct-17 18:01N 34°19' W 119°36'1 2.9
2017-Oct-17 17:30N 34°20' W 119°38'2 3.9
2017-Oct-17 17:00N 34°20' W 119°36'510.4
2017-Oct-17 16:30N 34°23' W 119°30'2 2.9
2017-Oct-17 15:59N 34°22' W 119°31'510.2
2017-Oct-17 15:30N 34°20' W 119°37'0 0.3
2017-Oct-17 15:00N 34°20' W 119°37'3 5.9
2017-Oct-17 14:30N 34°17' W 119°35'3 5.5
2017-Oct-17 14:00N 34°20' W 119°36'611.0
2017-Oct-17 13:29N 34°23' W 119°30'0 0.5
2017-Oct-17 12:59N 34°23' W 119°31'0 0.4
2017-Oct-17 12:29N 34°23' W 119°30'612.7
2017-Oct-17 12:00N 34°20' W 119°37'0 0.9
2017-Oct-17 11:30N 34°20' W 119°36'0 0.0
2017-Oct-17 11:00N 34°20' W 119°36'0 0.0
2017-Oct-17 10:29N 34°20' W 119°36'0 0.1
2017-Oct-17 10:00N 34°20' W 119°36'1 2.7
2017-Oct-17 09:30N 34°20' W 119°38'0 0.0
2017-Oct-17 09:00N 34°20' W 119°38'0 0.0
2017-Oct-17 08:30N 34°20' W 119°38'0 0.0
2017-Oct-17 08:00N 34°20' W 119°38'0 0.0
2017-Oct-17 07:30N 34°20' W 119°38'0 0.0
2017-Oct-17 07:00N 34°20' W 119°38'0 0.0
2017-Oct-17 06:29N 34°20' W 119°38'0 0.0
2017-Oct-17 06:00N 34°20' W 119°38'0 0.9
2017-Oct-17 05:31N 34°20' W 119°37'0 0.7
2017-Oct-17 05:00N 34°20' W 119°38'0 0.9
2017-Oct-17 04:29N 34°20' W 119°37'0 0.9
2017-Oct-17 04:00N 34°20' W 119°37'0 0.9
2017-Oct-17 03:29N 34°20' W 119°37'1 1.1
2017-Oct-17 03:00N 34°20' W 119°37'0 0.8
2017-Oct-17 02:29N 34°20' W 119°36'1 1.0
2017-Oct-17 02:00N 34°20' W 119°37'612.2
2017-Oct-17 01:30N 34°23' W 119°30'0 0.5
2017-Oct-17 01:00N 34°23' W 119°31'0 0.5
2017-Oct-17 00:29N 34°23' W 119°31'611.8
2017-Oct-17 00:00N 34°20' W 119°36'4 8.5
2017-Oct-16 23:30N 34°21' W 119°31'2 3.1
2017-Oct-16 23:00N 34°23' W 119°30'2 3.3
2017-Oct-16 22:30N 34°21' W 119°32'510.2
2017-Oct-16 22:00N 34°20' W 119°38'1 1.7
2017-Oct-16 21:30N 34°20' W 119°37'1 2.0
2017-Oct-16 21:00N 34°20' W 119°38'1 2.1
2017-Oct-16 20:30N 34°20' W 119°37'0 0.5
2017-Oct-16 20:00N 34°20' W 119°36'1 2.4
2017-Oct-16 19:30N 34°20' W 119°38'3 6.3
2017-Oct-16 18:58N 34°20' W 119°34'510.7
2017-Oct-16 18:30N 34°23' W 119°38'3 5.6
2017-Oct-16 18:00N 34°24' W 119°42'0 0.0
2017-Oct-16 17:27N 34°24' W 119°42'3 7.4
2017-Oct-16 17:00N 34°24' W 119°38'4 7.1
2017-Oct-16 16:30N 34°20' W 119°36'0 0.0
2017-Oct-16 16:00N 34°20' W 119°36'1 1.3
2017-Oct-16 15:30N 34°20' W 119°37'0 0.4
2017-Oct-16 15:00N 34°20' W 119°37'2 4.8
2017-Oct-16 14:30N 34°20' W 119°34'4 4.1
2017-Oct-16 13:30N 34°23' W 119°30'0 1.0
2017-Oct-16 12:59N 34°23' W 119°31'1 1.7
2017-Oct-16 12:30N 34°22' W 119°30'0 0.0
2017-Oct-16 12:00N 34°22' W 119°30'0 0.0
2017-Oct-16 11:30N 34°22' W 119°30'0 0.0
2017-Oct-16 10:55N 34°22' W 119°30'0 0.0
2017-Oct-16 10:30N 34°22' W 119°30'0 0.0
2017-Oct-16 09:59N 34°22' W 119°30'0 0.0
2017-Oct-16 09:25N 34°22' W 119°30'0 0.0
2017-Oct-16 08:59N 34°22' W 119°30'0 0.0
2017-Oct-16 08:28N 34°22' W 119°30'0 0.0
2017-Oct-16 07:58N 34°22' W 119°30'0 0.0
2017-Oct-16 07:29N 34°22' W 119°30'0 0.0
2017-Oct-16 06:58N 34°22' W 119°30'0 0.0
2017-Oct-16 06:26N 34°22' W 119°30'0 0.0
2017-Oct-16 06:00N 34°22' W 119°30'0 0.0
2017-Oct-16 05:30N 34°22' W 119°30'0 0.0
2017-Oct-16 05:00N 34°22' W 119°30'0 0.0
2017-Oct-16 04:24N 34°22' W 119°30'0 0.0
2017-Oct-16 03:59N 34°22' W 119°30'0 0.0
2017-Oct-16 03:30N 34°22' W 119°30'0 0.0
2017-Oct-16 03:00N 34°22' W 119°30'0 0.0
2017-Oct-16 02:30N 34°22' W 119°30'0 0.0
2017-Oct-16 02:00N 34°22' W 119°30'0 0.0
2017-Oct-16 01:30N 34°22' W 119°30'0 0.0
2017-Oct-16 00:59N 34°22' W 119°30'1 1.5
2017-Oct-16 00:30N 34°23' W 119°30'1 1.4
2017-Oct-16 00:00N 34°22' W 119°30'0 0.0
2017-Oct-15 23:29N 34°22' W 119°30'2 4.3
2017-Oct-15 23:00N 34°21' W 119°32'510.2
2017-Oct-15 22:31N 34°20' W 119°38'1 2.3
2017-Oct-15 21:59N 34°20' W 119°36'0 0.0
2017-Oct-15 21:30N 34°20' W 119°36'0 0.0
2017-Oct-15 21:00N 34°20' W 119°36'0 0.0
2017-Oct-15 20:30N 34°20' W 119°36'0 0.0
2017-Oct-15 20:00N 34°20' W 119°36'0 0.0
2017-Oct-15 19:29N 34°20' W 119°36'0 0.0
2017-Oct-15 19:00N 34°20' W 119°36'0 0.1
2017-Oct-15 18:30N 34°20' W 119°36'815.8
2017-Oct-15 18:00N 34°20' W 119°27'612.2
2017-Oct-15 17:30N 34°20' W 119°34'2 4.0
2017-Oct-15 16:59N 34°20' W 119°36'0 0.0
2017-Oct-15 16:30N 34°20' W 119°36'0 0.0
2017-Oct-15 16:00N 34°20' W 119°36'0 0.0
2017-Oct-15 15:30N 34°20' W 119°36'0 0.0
2017-Oct-15 15:01N 34°20' W 119°36'1 0.9
2017-Oct-15 14:00N 34°20' W 119°37'510.3
2017-Oct-15 13:29N 34°22' W 119°31'0 1.0
2017-Oct-15 13:00N 34°22' W 119°31'1 1.5
2017-Oct-15 12:30N 34°22' W 119°30'0 0.0
2017-Oct-15 12:00N 34°22' W 119°30'0 0.0
2017-Oct-15 11:28N 34°22' W 119°30'0 0.0
2017-Oct-15 11:00N 34°22' W 119°30'0 0.0
2017-Oct-15 10:30N 34°22' W 119°30'0 0.0
2017-Oct-15 09:59N 34°22' W 119°30'0 0.0
2017-Oct-15 09:30N 34°22' W 119°30'0 0.0
2017-Oct-15 09:00N 34°22' W 119°30'0 0.0
2017-Oct-15 08:28N 34°22' W 119°30'0 0.0
2017-Oct-15 08:00N 34°22' W 119°30'0 0.0
2017-Oct-15 07:31N 34°22' W 119°30'0 0.0
2017-Oct-15 06:59N 34°22' W 119°30'0 0.0
2017-Oct-15 06:30N 34°22' W 119°30'0 0.0
2017-Oct-15 06:00N 34°22' W 119°30'0 0.0
2017-Oct-15 05:30N 34°22' W 119°30'0 0.0
2017-Oct-15 05:00N 34°22' W 119°30'0 0.0
2017-Oct-15 04:30N 34°22' W 119°30'0 0.0
2017-Oct-15 03:59N 34°22' W 119°30'0 0.0
2017-Oct-15 03:30N 34°22' W 119°30'0 0.0
2017-Oct-15 02:59N 34°22' W 119°30'0 0.0
2017-Oct-15 02:30N 34°22' W 119°30'0 0.0
2017-Oct-15 02:00N 34°22' W 119°30'0 0.0
2017-Oct-15 01:28N 34°22' W 119°30'0 0.0
2017-Oct-15 01:00N 34°22' W 119°30'1 1.5
2017-Oct-15 00:30N 34°22' W 119°31'0 0.6
2017-Oct-15 00:00N 34°22' W 119°30'1 1.8
2017-Oct-14 23:30N 34°23' W 119°30'611.4
2017-Oct-14 23:00N 34°20' W 119°36'0 0.0
2017-Oct-14 22:30N 34°20' W 119°36'0 0.0
2017-Oct-14 22:00N 34°20' W 119°36'0 0.0
2017-Oct-14 21:30N 34°20' W 119°36'0 0.0
2017-Oct-14 21:00N 34°20' W 119°36'0 0.0
2017-Oct-14 20:30N 34°20' W 119°36'2 5.0
2017-Oct-14 20:01N 34°22' W 119°37'4 8.2
2017-Oct-14 19:30N 34°24' W 119°42'0 0.0
2017-Oct-14 19:00N 34°24' W 119°42'0 0.0
2017-Oct-14 18:30N 34°24' W 119°42'0 0.0
2017-Oct-14 18:00N 34°24' W 119°42'0 0.0
2017-Oct-14 17:30N 34°24' W 119°42'4 8.8
2017-Oct-14 17:00N 34°22' W 119°37'2 4.0
2017-Oct-14 16:30N 34°20' W 119°37'1 1.9
2017-Oct-14 16:00N 34°20' W 119°36'2 3.2
2017-Oct-14 15:30N 34°20' W 119°34'1 1.2
2017-Oct-14 15:00N 34°20' W 119°34'1 2.4
2017-Oct-14 14:30N 34°20' W 119°35'2 3.9
2017-Oct-14 14:00N 34°20' W 119°37'612.9
2017-Oct-14 13:30N 34°23' W 119°30'1 1.6
2017-Oct-14 13:00N 34°22' W 119°31'1 1.6
2017-Oct-14 12:31N 34°22' W 119°30'0 0.0
2017-Oct-14 12:00N 34°22' W 119°30'0 0.0
2017-Oct-14 11:31N 34°22' W 119°30'0 0.0
2017-Oct-14 10:58N 34°22' W 119°30'0 0.0
2017-Oct-14 10:27N 34°22' W 119°30'0 0.0
2017-Oct-14 09:58N 34°22' W 119°30'0 0.0
2017-Oct-14 09:28N 34°22' W 119°30'0 0.0
2017-Oct-14 09:01N 34°22' W 119°30'0 0.0
2017-Oct-14 08:30N 34°22' W 119°30'0 0.0
2017-Oct-14 08:00N 34°22' W 119°30'0 0.0
2017-Oct-14 07:28N 34°22' W 119°30'0 0.0
2017-Oct-14 07:00N 34°22' W 119°30'0 0.0
2017-Oct-14 06:30N 34°22' W 119°30'0 0.0
2017-Oct-14 05:59N 34°22' W 119°30'0 0.0
2017-Oct-14 05:31N 34°22' W 119°30'0 0.0
2017-Oct-14 04:59N 34°22' W 119°30'0 0.0
2017-Oct-14 04:30N 34°22' W 119°30'0 0.0
2017-Oct-14 03:58N 34°22' W 119°30'0 0.0
2017-Oct-14 03:30N 34°22' W 119°30'0 0.0
2017-Oct-14 03:00N 34°22' W 119°30'0 0.0
2017-Oct-14 02:30N 34°22' W 119°30'0 0.0
2017-Oct-14 02:01N 34°22' W 119°30'0 0.1
2017-Oct-14 01:27N 34°23' W 119°30'3 6.0
2017-Oct-14 01:00N 34°21' W 119°32'2 1.0
2017-Oct-13 23:20N 34°22' W 119°31'3 8.4
2017-Oct-13 23:00N 34°20' W 119°34'3 5.4
2017-Oct-13 22:30N 34°22' W 119°31'510.6
2017-Oct-13 22:00N 34°20' W 119°37'3 5.4
2017-Oct-13 21:30N 34°20' W 119°34'0 0.0
2017-Oct-13 21:00N 34°20' W 119°34'0 0.0
2017-Oct-13 20:30N 34°20' W 119°34'0 0.0
2017-Oct-13 20:00N 34°20' W 119°34'3 6.4
2017-Oct-13 19:30N 34°23' W 119°31'1 1.8
2017-Oct-13 19:00N 34°23' W 119°30'611.9
2017-Oct-13 18:30N 34°20' W 119°37'2 4.6
2017-Oct-13 17:59N 34°20' W 119°34'0 0.0
2017-Oct-13 17:30N 34°20' W 119°34'3 5.1
2017-Oct-13 17:00N 34°20' W 119°37'1 1.1
2017-Oct-13 16:30N 34°20' W 119°36'1 2.8
2017-Oct-13 16:00N 34°20' W 119°38'5 9.7
2017-Oct-13 15:29N 34°21' W 119°32'2 4.8
2017-Oct-13 14:59N 34°23' W 119°30'5 9.5
2017-Oct-13 14:30N 34°20' W 119°35'1 2.8
2017-Oct-13 14:00N 34°20' W 119°36'611.1
2017-Oct-13 13:29N 34°23' W 119°30'0 0.7
2017-Oct-13 12:59N 34°23' W 119°31'0 1.0
2017-Oct-13 12:28N 34°23' W 119°30'0 0.0
2017-Oct-13 11:59N 34°23' W 119°30'1 3.1
2017-Oct-13 11:30N 34°22' W 119°32'4 8.1
2017-Oct-13 11:00N 34°20' W 119°36'611.6
2017-Oct-13 10:30N 34°23' W 119°30'612.9
2017-Oct-13 10:00N 34°20' W 119°37'1 1.9
2017-Oct-13 09:30N 34°20' W 119°36'0 0.0
2017-Oct-13 09:00N 34°20' W 119°36'0 0.0
2017-Oct-13 08:30N 34°20' W 119°36'0 0.0
2017-Oct-13 08:00N 34°20' W 119°36'0 0.0
2017-Oct-13 07:30N 34°20' W 119°36'0 0.0
2017-Oct-13 07:00N 34°20' W 119°36'0 0.0
2017-Oct-13 06:30N 34°20' W 119°36'0 0.0
2017-Oct-13 06:00N 34°20' W 119°36'0 0.0
2017-Oct-13 05:30N 34°20' W 119°36'0 0.1
2017-Oct-13 05:00N 34°20' W 119°36'0 0.0
2017-Oct-13 04:30N 34°20' W 119°36'0 0.0
2017-Oct-13 04:00N 34°20' W 119°36'0 0.1
2017-Oct-13 03:30N 34°20' W 119°36'0 0.0
2017-Oct-13 03:00N 34°20' W 119°36'0 0.0
2017-Oct-13 02:30N 34°20' W 119°36'1 1.0
2017-Oct-13 02:00N 34°20' W 119°37'612.4
2017-Oct-13 01:30N 34°23' W 119°30'1 1.1
2017-Oct-13 01:00N 34°23' W 119°30'1 1.1
2017-Oct-13 00:30N 34°23' W 119°30'612.2
2017-Oct-13 00:00N 34°20' W 119°37'611.8
2017-Oct-12 23:31N 34°23' W 119°31'0 0.9
2017-Oct-12 22:59N 34°23' W 119°30'3 5.3
2017-Oct-12 22:30N 34°21' W 119°32'4 8.2
2017-Oct-12 22:00N 34°20' W 119°37'3 6.2
2017-Oct-12 21:31N 34°20' W 119°33'0 0.7
2017-Oct-12 20:59N 34°20' W 119°34'2 5.1
2017-Oct-12 20:30N 34°20' W 119°37'0 0.6
2017-Oct-12 20:00N 34°20' W 119°36'1 1.6
2017-Oct-12 19:30N 34°20' W 119°37'0 0.0
2017-Oct-12 19:00N 34°20' W 119°37'1 1.4
2017-Oct-12 18:29N 34°20' W 119°37'1 2.4
2017-Oct-12 18:00N 34°20' W 119°38'3 6.9
2017-Oct-12 17:30N 34°20' W 119°34'3 6.3
2017-Oct-12 17:00N 34°17' W 119°35'3 6.2
2017-Oct-12 16:30N 34°20' W 119°37'3 5.3
2017-Oct-12 16:00N 34°20' W 119°34'4 7.8
2017-Oct-12 15:29N 34°23' W 119°30'2 4.7
2017-Oct-12 15:00N 34°21' W 119°32'4 6.6
2017-Oct-12 14:26N 34°20' W 119°36'0 1.2
2017-Oct-12 14:00N 34°20' W 119°36'5 9.7
2017-Oct-12 13:29N 34°23' W 119°31'0 0.4
2017-Oct-12 13:00N 34°23' W 119°31'0 0.7
2017-Oct-12 12:26N 34°23' W 119°31'512.3
2017-Oct-12 12:00N 34°20' W 119°36'0 0.7
2017-Oct-12 11:30N 34°20' W 119°36'0 0.0
2017-Oct-12 11:00N 34°20' W 119°36'0 0.0
2017-Oct-12 10:30N 34°20' W 119°36'0 0.0
2017-Oct-12 09:59N 34°20' W 119°36'0 0.1
2017-Oct-12 09:30N 34°20' W 119°36'0 0.0
2017-Oct-12 09:00N 34°20' W 119°36'0 0.0
2017-Oct-12 08:30N 34°20' W 119°36'0 0.0
2017-Oct-12 08:00N 34°20' W 119°36'0 0.0
2017-Oct-12 07:30N 34°20' W 119°36'0 0.0
2017-Oct-12 07:00N 34°20' W 119°36'0 0.0
2017-Oct-12 06:30N 34°20' W 119°36'0 0.0
2017-Oct-12 06:00N 34°20' W 119°36'0 0.0
2017-Oct-12 05:30N 34°20' W 119°36'0 0.0
2017-Oct-12 04:59N 34°20' W 119°36'0 0.0
2017-Oct-12 04:29N 34°20' W 119°36'0 0.0
2017-Oct-12 03:59N 34°20' W 119°36'0 0.0
2017-Oct-12 03:30N 34°20' W 119°36'2 3.6
2017-Oct-12 03:00N 34°20' W 119°34'1 3.0
2017-Oct-12 02:30N 34°21' W 119°33'4 7.4
2017-Oct-12 02:01N 34°20' W 119°37'612.1
2017-Oct-12 01:30N 34°23' W 119°30'0 0.7
2017-Oct-12 00:59N 34°23' W 119°31'0 0.7
2017-Oct-12 00:30N 34°23' W 119°30'612.1
2017-Oct-12 00:00N 34°20' W 119°37'0 0.9
2017-Oct-11 23:30N 34°20' W 119°37'612.4
2017-Oct-11 23:00N 34°23' W 119°31'2 4.3
2017-Oct-11 22:30N 34°21' W 119°32'5 9.9
2017-Oct-11 22:00N 34°20' W 119°38'1 1.9
2017-Oct-11 21:30N 34°20' W 119°36'612.0
2017-Oct-11 21:00N 34°24' W 119°41'0 0.7
2017-Oct-11 20:30N 34°24' W 119°42'0 0.0
2017-Oct-11 19:59N 34°24' W 119°42'4 7.7
2017-Oct-11 19:30N 34°24' W 119°37'510.2
2017-Oct-11 19:00N 34°22' W 119°31'611.4
2017-Oct-11 18:30N 34°20' W 119°38'2 4.2
2017-Oct-11 18:00N 34°18' W 119°36'1 2.6
2017-Oct-11 17:30N 34°17' W 119°35'4 6.9
2017-Oct-11 17:00N 34°20' W 119°38'0 0.0
2017-Oct-11 00:00N 34°20' W 119°38'3 5.0
2017-Oct-10 23:30N 34°20' W 119°34'4 9.0
2017-Oct-10 23:00N 34°23' W 119°30'4 7.2
2017-Oct-10 22:30N 34°20' W 119°33'2 5.0
2017-Oct-10 22:00N 34°19' W 119°36'2 4.1
2017-Oct-10 21:30N 34°20' W 119°34'3 5.1
2017-Oct-10 21:01N 34°20' W 119°37'2 4.8
2017-Oct-10 20:30N 34°20' W 119°34'2 4.3
2017-Oct-10 20:00N 34°20' W 119°36'0 0.9
2017-Oct-10 19:30N 34°20' W 119°37'2 4.8
2017-Oct-10 19:01N 34°20' W 119°34'3 5.6
2017-Oct-10 18:31N 34°20' W 119°37'1 1.8
2017-Oct-10 18:00N 34°20' W 119°36'0 0.0
2017-Oct-10 17:31N 34°20' W 119°36'1 1.9
2017-Oct-10 17:00N 34°20' W 119°37'4 7.9
2017-Oct-10 16:30N 34°21' W 119°33'3 5.8
2017-Oct-10 15:59N 34°23' W 119°30'4 8.8
2017-Oct-10 15:30N 34°20' W 119°34'3 6.2
2017-Oct-10 15:00N 34°17' W 119°35'3 2.8
2017-Oct-10 14:01N 34°20' W 119°36'611.1
2017-Oct-10 13:30N 34°23' W 119°30'0 0.6
2017-Oct-10 12:57N 34°23' W 119°30'0 0.6
2017-Oct-10 12:30N 34°23' W 119°31'612.5
2017-Oct-10 12:00N 34°20' W 119°37'3 5.6
2017-Oct-10 11:30N 34°20' W 119°34'0 0.0
2017-Oct-10 11:00N 34°20' W 119°34'0 0.0
2017-Oct-10 10:30N 34°20' W 119°34'0 0.0
2017-Oct-10 10:00N 34°20' W 119°34'0 0.0
2017-Oct-10 09:30N 34°20' W 119°34'0 0.0
2017-Oct-10 09:00N 34°20' W 119°34'0 0.0
2017-Oct-10 08:30N 34°20' W 119°34'0 0.0
2017-Oct-10 08:00N 34°20' W 119°34'0 0.0
2017-Oct-10 07:30N 34°20' W 119°34'0 0.0
2017-Oct-10 07:00N 34°20' W 119°34'0 0.0
2017-Oct-10 06:30N 34°20' W 119°34'0 0.0
2017-Oct-10 05:59N 34°20' W 119°34'0 0.0
2017-Oct-10 05:28N 34°20' W 119°34'0 0.0
2017-Oct-10 05:00N 34°20' W 119°34'0 0.0
2017-Oct-10 04:29N 34°20' W 119°34'0 0.0
2017-Oct-10 04:00N 34°20' W 119°34'2 4.9
2017-Oct-10 03:30N 34°20' W 119°37'1 1.1
2017-Oct-10 03:00N 34°20' W 119°37'0 0.3
2017-Oct-10 02:30N 34°20' W 119°38'3 5.8
2017-Oct-10 02:00N 34°18' W 119°35'712.9
2017-Oct-10 01:30N 34°23' W 119°31'0 0.4
2017-Oct-10 01:00N 34°23' W 119°30'3 6.3
2017-Oct-10 00:31N 34°21' W 119°33'3 6.6
2017-Oct-10 00:00N 34°20' W 119°37'3 5.2
2017-Oct-09 23:31N 34°20' W 119°34'2 3.8
2017-Oct-09 23:00N 34°21' W 119°32'2 3.8
2017-Oct-09 22:30N 34°20' W 119°34'2 4.6
2017-Oct-09 22:00N 34°20' W 119°36'610.8
2017-Oct-09 21:30N 34°23' W 119°31'611.6
2017-Oct-09 21:00N 34°24' W 119°37'3 6.7
2017-Oct-09 20:29N 34°24' W 119°42'0 0.0
2017-Oct-09 19:58N 34°24' W 119°42'2 5.0
2017-Oct-09 19:30N 34°24' W 119°39'611.2
2017-Oct-09 19:00N 34°20' W 119°34'3 6.6
2017-Oct-09 18:29N 34°20' W 119°38'3 7.3
2017-Oct-09 18:00N 34°20' W 119°34'3 5.9
2017-Oct-09 17:30N 34°20' W 119°37'3 6.3
2017-Oct-09 17:00N 34°20' W 119°34'1 2.3
2017-Oct-09 16:30N 34°21' W 119°32'3 5.9
2017-Oct-09 16:00N 34°23' W 119°30'  
Track history (hours):
 
Tides and Currents Weather Stations Pressure Air Temp Water Temp Dewpoint Dewpoint Depression Visibility Wind Speed Wind Dir Waves Ship Positions

Alan T

Owner: SO CAL SHIP SERVICES, INC, TERMINAL ISLAND, CA. More information available from US FCC via Universal Licensing System and Coast Guard Vessel Documentation Center.

Last reported at 2017-Oct-19 16:00 UTC. Time now 2017-Oct-19 16:13 UTC.
Position N 34°20' W 119°34'.

Length 30 m; draft 2.5 m.

Type: Ship (hazmat cat B). MMSI: 367104060.

Date/timePositionNaut miles runAvg speedWind from/ knotsBaromVisibWave heightAir tempDewpointWater temp
2017-Oct-19 16:00N 34°20' W 119°34'4 8.3
2017-Oct-19 15:30N 34°23' W 119°30'1 1.7
2017-Oct-19 15:00N 34°22' W 119°31'612.7
2017-Oct-19 14:30N 34°17' W 119°36'3 5.0
2017-Oct-19 13:59N 34°20' W 119°36'511.4
2017-Oct-19 13:30N 34°23' W 119°30'0 0.4
2017-Oct-19 13:00N 34°23' W 119°30'0 0.4
2017-Oct-19 12:31N 34°23' W 119°31'611.8
2017-Oct-19 12:00N 34°20' W 119°37'0 0.9
2017-Oct-19 11:29N 34°20' W 119°36'0 0.0
2017-Oct-19 11:00N 34°20' W 119°36'0 0.0
2017-Oct-19 10:29N 34°20' W 119°36'0 0.0
2017-Oct-19 10:00N 34°20' W 119°36'0 0.0
2017-Oct-19 09:30N 34°20' W 119°36'0 0.1
2017-Oct-19 08:59N 34°20' W 119°36'0 0.0
2017-Oct-19 08:30N 34°20' W 119°36'0 0.0
2017-Oct-19 08:00N 34°20' W 119°36'0 0.0
2017-Oct-19 07:30N 34°20' W 119°36'0 0.0
2017-Oct-19 07:00N 34°20' W 119°36'1 1.0
2017-Oct-19 06:29N 34°20' W 119°37'1 1.1
2017-Oct-19 06:00N 34°20' W 119°36'0 0.0
2017-Oct-19 05:30N 34°20' W 119°36'0 0.0
2017-Oct-19 05:00N 34°20' W 119°36'0 0.0
2017-Oct-19 04:30N 34°20' W 119°36'1 1.8
2017-Oct-19 04:00N 34°20' W 119°37'3 5.9
2017-Oct-19 03:30N 34°20' W 119°34'0 0.0
2017-Oct-19 03:00N 34°20' W 119°34'3 5.4
2017-Oct-19 02:30N 34°22' W 119°31'510.7
2017-Oct-19 02:01N 34°20' W 119°37'611.5
2017-Oct-19 01:31N 34°22' W 119°31'1 1.3
2017-Oct-19 01:00N 34°23' W 119°31'2 4.5
2017-Oct-19 00:30N 34°21' W 119°32'3 5.4
2017-Oct-19 00:00N 34°20' W 119°35'5 9.7
2017-Oct-18 23:30N 34°23' W 119°30'611.6
2017-Oct-18 23:00N 34°20' W 119°36'1 1.4
2017-Oct-18 22:30N 34°19' W 119°37'2 4.9
2017-Oct-18 22:00N 34°17' W 119°35'3 6.3
2017-Oct-18 21:30N 34°20' W 119°34'4 7.0
2017-Oct-18 21:00N 34°20' W 119°38'1 2.8
2017-Oct-18 20:30N 34°20' W 119°36'0 0.2
2017-Oct-18 20:00N 34°20' W 119°36'0 0.8
2017-Oct-18 19:30N 34°20' W 119°37'0 0.0
2017-Oct-18 19:00N 34°20' W 119°37'1 1.1
2017-Oct-18 18:30N 34°20' W 119°37'0 0.0
2017-Oct-18 18:00N 34°20' W 119°37'0 0.1
2017-Oct-18 17:30N 34°20' W 119°37'0 0.7
2017-Oct-18 17:00N 34°20' W 119°38'0 0.6
2017-Oct-18 16:30N 34°20' W 119°37'3 6.1
2017-Oct-18 16:00N 34°20' W 119°34'4 8.1
2017-Oct-18 15:30N 34°23' W 119°30'4 8.1
2017-Oct-18 15:00N 34°20' W 119°34'2 1.8
2017-Oct-18 14:00N 34°20' W 119°36'510.6
2017-Oct-18 13:30N 34°23' W 119°30'0 0.2
2017-Oct-18 13:00N 34°23' W 119°30'0 0.0
2017-Oct-18 12:30N 34°23' W 119°30'511.3
2017-Oct-18 12:01N 34°20' W 119°36'2 3.1
2017-Oct-18 11:30N 34°20' W 119°38'0 0.0
2017-Oct-18 10:59N 34°20' W 119°38'0 0.0
2017-Oct-18 10:30N 34°20' W 119°38'0 0.0
2017-Oct-18 09:59N 34°20' W 119°38'0 0.0
2017-Oct-18 09:30N 34°20' W 119°38'0 0.0
2017-Oct-18 09:00N 34°20' W 119°38'0 1.0
2017-Oct-18 08:29N 34°20' W 119°37'0 0.5
2017-Oct-18 08:00N 34°20' W 119°38'0 0.5
2017-Oct-18 07:30N 34°20' W 119°38'1 1.8
2017-Oct-18 07:00N 34°20' W 119°37'1 1.8
2017-Oct-18 06:30N 34°20' W 119°38'0 0.0
2017-Oct-18 06:00N 34°20' W 119°38'0 0.0
2017-Oct-18 05:29N 34°20' W 119°38'0 0.0
2017-Oct-18 05:00N 34°20' W 119°38'0 0.0
2017-Oct-18 04:30N 34°20' W 119°38'0 0.0
2017-Oct-18 03:59N 34°20' W 119°38'0 0.0
2017-Oct-18 03:30N 34°20' W 119°38'1 2.4
2017-Oct-18 03:00N 34°20' W 119°37'4 8.8
2017-Oct-18 02:30N 34°22' W 119°32'4 8.0
2017-Oct-18 02:00N 34°20' W 119°36'5 9.6
2017-Oct-18 01:29N 34°23' W 119°31'1 1.6
2017-Oct-18 00:59N 34°23' W 119°30'1 1.6
2017-Oct-18 00:30N 34°23' W 119°31'611.4
2017-Oct-18 00:00N 34°20' W 119°36'0 0.9
2017-Oct-17 23:30N 34°20' W 119°37'611.4
2017-Oct-17 23:01N 34°23' W 119°31'4 7.5
2017-Oct-17 22:30N 34°20' W 119°34'2 5.1
2017-Oct-17 22:01N 34°18' W 119°36'510.2
2017-Oct-17 21:30N 34°22' W 119°32'2 3.2
2017-Oct-17 21:00N 34°23' W 119°31'612.1
2017-Oct-17 20:30N 34°20' W 119°37'0 0.4
2017-Oct-17 20:00N 34°20' W 119°37'0 0.7
2017-Oct-17 19:30N 34°20' W 119°37'1 1.2
2017-Oct-17 19:00N 34°20' W 119°38'1 1.1
2017-Oct-17 18:30N 34°20' W 119°37'1 2.1
2017-Oct-17 18:01N 34°19' W 119°36'1 2.9
2017-Oct-17 17:30N 34°20' W 119°38'2 3.9
2017-Oct-17 17:00N 34°20' W 119°36'510.4
2017-Oct-17 16:30N 34°23' W 119°30'2 2.9
2017-Oct-17 15:59N 34°22' W 119°31'510.2
2017-Oct-17 15:30N 34°20' W 119°37'0 0.3
2017-Oct-17 15:00N 34°20' W 119°37'3 5.9
2017-Oct-17 14:30N 34°17' W 119°35'3 5.5
2017-Oct-17 14:00N 34°20' W 119°36'611.0
2017-Oct-17 13:29N 34°23' W 119°30'0 0.5
2017-Oct-17 12:59N 34°23' W 119°31'0 0.4
2017-Oct-17 12:29N 34°23' W 119°30'612.7
2017-Oct-17 12:00N 34°20' W 119°37'0 0.9
2017-Oct-17 11:30N 34°20' W 119°36'0 0.0
2017-Oct-17 11:00N 34°20' W 119°36'0 0.0
2017-Oct-17 10:29N 34°20' W 119°36'0 0.1
2017-Oct-17 10:00N 34°20' W 119°36'1 2.7
2017-Oct-17 09:30N 34°20' W 119°38'0 0.0
2017-Oct-17 09:00N 34°20' W 119°38'0 0.0
2017-Oct-17 08:30N 34°20' W 119°38'0 0.0
2017-Oct-17 08:00N 34°20' W 119°38'0 0.0
2017-Oct-17 07:30N 34°20' W 119°38'0 0.0
2017-Oct-17 07:00N 34°20' W 119°38'0 0.0
2017-Oct-17 06:29N 34°20' W 119°38'0 0.0
2017-Oct-17 06:00N 34°20' W 119°38'0 0.9
2017-Oct-17 05:31N 34°20' W 119°37'0 0.7
2017-Oct-17 05:00N 34°20' W 119°38'0 0.9
2017-Oct-17 04:29N 34°20' W 119°37'0 0.9
2017-Oct-17 04:00N 34°20' W 119°37'0 0.9
2017-Oct-17 03:29N 34°20' W 119°37'1 1.1
2017-Oct-17 03:00N 34°20' W 119°37'0 0.8
2017-Oct-17 02:29N 34°20' W 119°36'1 1.0
2017-Oct-17 02:00N 34°20' W 119°37'612.2
2017-Oct-17 01:30N 34°23' W 119°30'0 0.5
2017-Oct-17 01:00N 34°23' W 119°31'0 0.5
2017-Oct-17 00:29N 34°23' W 119°31'611.8
2017-Oct-17 00:00N 34°20' W 119°36'4 8.5
2017-Oct-16 23:30N 34°21' W 119°31'2 3.1
2017-Oct-16 23:00N 34°23' W 119°30'2 3.3
2017-Oct-16 22:30N 34°21' W 119°32'510.2
2017-Oct-16 22:00N 34°20' W 119°38'1 1.7
2017-Oct-16 21:30N 34°20' W 119°37'1 2.0
2017-Oct-16 21:00N 34°20' W 119°38'1 2.1
2017-Oct-16 20:30N 34°20' W 119°37'0 0.5
2017-Oct-16 20:00N 34°20' W 119°36'1 2.4
2017-Oct-16 19:30N 34°20' W 119°38'3 6.3
2017-Oct-16 18:58N 34°20' W 119°34'510.7
2017-Oct-16 18:30N 34°23' W 119°38'3 5.6
2017-Oct-16 18:00N 34°24' W 119°42'0 0.0
2017-Oct-16 17:27N 34°24' W 119°42'3 7.4
2017-Oct-16 17:00N 34°24' W 119°38'4 7.1
2017-Oct-16 16:30N 34°20' W 119°36'0 0.0
2017-Oct-16 16:00N 34°20' W 119°36'1 1.3
2017-Oct-16 15:30N 34°20' W 119°37'0 0.4
2017-Oct-16 15:00N 34°20' W 119°37'2 4.8
2017-Oct-16 14:30N 34°20' W 119°34'4 4.1
2017-Oct-16 13:30N 34°23' W 119°30'0 1.0
2017-Oct-16 12:59N 34°23' W 119°31'1 1.7
2017-Oct-16 12:30N 34°22' W 119°30'0 0.0
2017-Oct-16 12:00N 34°22' W 119°30'0 0.0
2017-Oct-16 11:30N 34°22' W 119°30'0 0.0
2017-Oct-16 10:55N 34°22' W 119°30'0 0.0
2017-Oct-16 10:30N 34°22' W 119°30'0 0.0
2017-Oct-16 09:59N 34°22' W 119°30'0 0.0
2017-Oct-16 09:25N 34°22' W 119°30'0 0.0
2017-Oct-16 08:59N 34°22' W 119°30'0 0.0
2017-Oct-16 08:28N 34°22' W 119°30'0 0.0
2017-Oct-16 07:58N 34°22' W 119°30'0 0.0
2017-Oct-16 07:29N 34°22' W 119°30'0 0.0
2017-Oct-16 06:58N 34°22' W 119°30'0 0.0
2017-Oct-16 06:26N 34°22' W 119°30'0 0.0
2017-Oct-16 06:00N 34°22' W 119°30'0 0.0
2017-Oct-16 05:30N 34°22' W 119°30'0 0.0
2017-Oct-16 05:00N 34°22' W 119°30'0 0.0
2017-Oct-16 04:24N 34°22' W 119°30'0 0.0
2017-Oct-16 03:59N 34°22' W 119°30'0 0.0
2017-Oct-16 03:30N 34°22' W 119°30'0 0.0
2017-Oct-16 03:00N 34°22' W 119°30'0 0.0
2017-Oct-16 02:30N 34°22' W 119°30'0 0.0
2017-Oct-16 02:00N 34°22' W 119°30'0 0.0
2017-Oct-16 01:30N 34°22' W 119°30'0 0.0
2017-Oct-16 00:59N 34°22' W 119°30'1 1.5
2017-Oct-16 00:30N 34°23' W 119°30'1 1.4
2017-Oct-16 00:00N 34°22' W 119°30'0 0.0
2017-Oct-15 23:29N 34°22' W 119°30'2 4.3
2017-Oct-15 23:00N 34°21' W 119°32'510.2
2017-Oct-15 22:31N 34°20' W 119°38'1 2.3
2017-Oct-15 21:59N 34°20' W 119°36'0 0.0
2017-Oct-15 21:30N 34°20' W 119°36'0 0.0
2017-Oct-15 21:00N 34°20' W 119°36'0 0.0
2017-Oct-15 20:30N 34°20' W 119°36'0 0.0
2017-Oct-15 20:00N 34°20' W 119°36'0 0.0
2017-Oct-15 19:29N 34°20' W 119°36'0 0.0
2017-Oct-15 19:00N 34°20' W 119°36'0 0.1
2017-Oct-15 18:30N 34°20' W 119°36'815.8
2017-Oct-15 18:00N 34°20' W 119°27'612.2
2017-Oct-15 17:30N 34°20' W 119°34'2 4.0
2017-Oct-15 16:59N 34°20' W 119°36'0 0.0
2017-Oct-15 16:30N 34°20' W 119°36'0 0.0
2017-Oct-15 16:00N 34°20' W 119°36'0 0.0
2017-Oct-15 15:30N 34°20' W 119°36'0 0.0
2017-Oct-15 15:01N 34°20' W 119°36'1 0.9
2017-Oct-15 14:00N 34°20' W 119°37'510.3
2017-Oct-15 13:29N 34°22' W 119°31'0 1.0
2017-Oct-15 13:00N 34°22' W 119°31'1 1.5
2017-Oct-15 12:30N 34°22' W 119°30'0 0.0
2017-Oct-15 12:00N 34°22' W 119°30'0 0.0
2017-Oct-15 11:28N 34°22' W 119°30'0 0.0
2017-Oct-15 11:00N 34°22' W 119°30'0 0.0
2017-Oct-15 10:30N 34°22' W 119°30'0 0.0
2017-Oct-15 09:59N 34°22' W 119°30'0 0.0
2017-Oct-15 09:30N 34°22' W 119°30'0 0.0
2017-Oct-15 09:00N 34°22' W 119°30'0 0.0
2017-Oct-15 08:28N 34°22' W 119°30'0 0.0
2017-Oct-15 08:00N 34°22' W 119°30'0 0.0
2017-Oct-15 07:31N 34°22' W 119°30'0 0.0
2017-Oct-15 06:59N 34°22' W 119°30'0 0.0
2017-Oct-15 06:30N 34°22' W 119°30'0 0.0
2017-Oct-15 06:00N 34°22' W 119°30'0 0.0
2017-Oct-15 05:30N 34°22' W 119°30'0 0.0
2017-Oct-15 05:00N 34°22' W 119°30'0 0.0
2017-Oct-15 04:30N 34°22' W 119°30'0 0.0
2017-Oct-15 03:59N 34°22' W 119°30'0 0.0
2017-Oct-15 03:30N 34°22' W 119°30'0 0.0
2017-Oct-15 02:59N 34°22' W 119°30'0 0.0
2017-Oct-15 02:30N 34°22' W 119°30'0 0.0
2017-Oct-15 02:00N 34°22' W 119°30'0 0.0
2017-Oct-15 01:28N 34°22' W 119°30'0 0.0
2017-Oct-15 01:00N 34°22' W 119°30'1 1.5
2017-Oct-15 00:30N 34°22' W 119°31'0 0.6
2017-Oct-15 00:00N 34°22' W 119°30'1 1.8
2017-Oct-14 23:30N 34°23' W 119°30'611.4
2017-Oct-14 23:00N 34°20' W 119°36'0 0.0
2017-Oct-14 22:30N 34°20' W 119°36'0 0.0
2017-Oct-14 22:00N 34°20' W 119°36'0 0.0
2017-Oct-14 21:30N 34°20' W 119°36'0 0.0
2017-Oct-14 21:00N 34°20' W 119°36'0 0.0
2017-Oct-14 20:30N 34°20' W 119°36'2 5.0
2017-Oct-14 20:01N 34°22' W 119°37'4 8.2
2017-Oct-14 19:30N 34°24' W 119°42'0 0.0
2017-Oct-14 19:00N 34°24' W 119°42'0 0.0
2017-Oct-14 18:30N 34°24' W 119°42'0 0.0
2017-Oct-14 18:00N 34°24' W 119°42'0 0.0
2017-Oct-14 17:30N 34°24' W 119°42'4 8.8
2017-Oct-14 17:00N 34°22' W 119°37'2 4.0
2017-Oct-14 16:30N 34°20' W 119°37'1 1.9
2017-Oct-14 16:00N 34°20' W 119°36'2 3.2
2017-Oct-14 15:30N 34°20' W 119°34'1 1.2
2017-Oct-14 15:00N 34°20' W 119°34'1 2.4
2017-Oct-14 14:30N 34°20' W 119°35'2 3.9
2017-Oct-14 14:00N 34°20' W 119°37'612.9
2017-Oct-14 13:30N 34°23' W 119°30'1 1.6
2017-Oct-14 13:00N 34°22' W 119°31'1 1.6
2017-Oct-14 12:31N 34°22' W 119°30'0 0.0
2017-Oct-14 12:00N 34°22' W 119°30'0 0.0
2017-Oct-14 11:31N 34°22' W 119°30'0 0.0
2017-Oct-14 10:58N 34°22' W 119°30'0 0.0
2017-Oct-14 10:27N 34°22' W 119°30'0 0.0
2017-Oct-14 09:58N 34°22' W 119°30'0 0.0
2017-Oct-14 09:28N 34°22' W 119°30'0 0.0
2017-Oct-14 09:01N 34°22' W 119°30'0 0.0
2017-Oct-14 08:30N 34°22' W 119°30'0 0.0
2017-Oct-14 08:00N 34°22' W 119°30'0 0.0
2017-Oct-14 07:28N 34°22' W 119°30'0 0.0
2017-Oct-14 07:00N 34°22' W 119°30'0 0.0
2017-Oct-14 06:30N 34°22' W 119°30'0 0.0
2017-Oct-14 05:59N 34°22' W 119°30'0 0.0
2017-Oct-14 05:31N 34°22' W 119°30'0 0.0
2017-Oct-14 04:59N 34°22' W 119°30'0 0.0
2017-Oct-14 04:30N 34°22' W 119°30'0 0.0
2017-Oct-14 03:58N 34°22' W 119°30'0 0.0
2017-Oct-14 03:30N 34°22' W 119°30'0 0.0
2017-Oct-14 03:00N 34°22' W 119°30'0 0.0
2017-Oct-14 02:30N 34°22' W 119°30'0 0.0
2017-Oct-14 02:01N 34°22' W 119°30'0 0.1
2017-Oct-14 01:27N 34°23' W 119°30'3 6.0
2017-Oct-14 01:00N 34°21' W 119°32'2 1.0
2017-Oct-13 23:20N 34°22' W 119°31'3 8.4
2017-Oct-13 23:00N 34°20' W 119°34'3 5.4
2017-Oct-13 22:30N 34°22' W 119°31'510.6
2017-Oct-13 22:00N 34°20' W 119°37'3 5.4
2017-Oct-13 21:30N 34°20' W 119°34'0 0.0
2017-Oct-13 21:00N 34°20' W 119°34'0 0.0
2017-Oct-13 20:30N 34°20' W 119°34'0 0.0
2017-Oct-13 20:00N 34°20' W 119°34'3 6.4
2017-Oct-13 19:30N 34°23' W 119°31'1 1.8
2017-Oct-13 19:00N 34°23' W 119°30'611.9
2017-Oct-13 18:30N 34°20' W 119°37'2 4.6
2017-Oct-13 17:59N 34°20' W 119°34'0 0.0
2017-Oct-13 17:30N 34°20' W 119°34'3 5.1
2017-Oct-13 17:00N 34°20' W 119°37'1 1.1
2017-Oct-13 16:30N 34°20' W 119°36'1 2.8
2017-Oct-13 16:00N 34°20' W 119°38'5 9.7
2017-Oct-13 15:29N 34°21' W 119°32'2 4.8
2017-Oct-13 14:59N 34°23' W 119°30'5 9.5
2017-Oct-13 14:30N 34°20' W 119°35'1 2.8
2017-Oct-13 14:00N 34°20' W 119°36'611.1
2017-Oct-13 13:29N 34°23' W 119°30'0 0.7
2017-Oct-13 12:59N 34°23' W 119°31'0 1.0
2017-Oct-13 12:28N 34°23' W 119°30'0 0.0
2017-Oct-13 11:59N 34°23' W 119°30'1 3.1
2017-Oct-13 11:30N 34°22' W 119°32'4 8.1
2017-Oct-13 11:00N 34°20' W 119°36'611.6
2017-Oct-13 10:30N 34°23' W 119°30'612.9
2017-Oct-13 10:00N 34°20' W 119°37'1 1.9
2017-Oct-13 09:30N 34°20' W 119°36'0 0.0
2017-Oct-13 09:00N 34°20' W 119°36'0 0.0
2017-Oct-13 08:30N 34°20' W 119°36'0 0.0
2017-Oct-13 08:00N 34°20' W 119°36'0 0.0
2017-Oct-13 07:30N 34°20' W 119°36'0 0.0
2017-Oct-13 07:00N 34°20' W 119°36'0 0.0
2017-Oct-13 06:30N 34°20' W 119°36'0 0.0
2017-Oct-13 06:00N 34°20' W 119°36'0 0.0
2017-Oct-13 05:30N 34°20' W 119°36'0 0.1
2017-Oct-13 05:00N 34°20' W 119°36'0 0.0
2017-Oct-13 04:30N 34°20' W 119°36'0 0.0
2017-Oct-13 04:00N 34°20' W 119°36'0 0.1
2017-Oct-13 03:30N 34°20' W 119°36'0 0.0
2017-Oct-13 03:00N 34°20' W 119°36'0 0.0
2017-Oct-13 02:30N 34°20' W 119°36'1 1.0
2017-Oct-13 02:00N 34°20' W 119°37'612.4
2017-Oct-13 01:30N 34°23' W 119°30'1 1.1
2017-Oct-13 01:00N 34°23' W 119°30'1 1.1
2017-Oct-13 00:30N 34°23' W 119°30'612.2
2017-Oct-13 00:00N 34°20' W 119°37'611.8
2017-Oct-12 23:31N 34°23' W 119°31'0 0.9
2017-Oct-12 22:59N 34°23' W 119°30'3 5.3
2017-Oct-12 22:30N 34°21' W 119°32'4 8.2
2017-Oct-12 22:00N 34°20' W 119°37'3 6.2
2017-Oct-12 21:31N 34°20' W 119°33'0 0.7
2017-Oct-12 20:59N 34°20' W 119°34'2 5.1
2017-Oct-12 20:30N 34°20' W 119°37'0 0.6
2017-Oct-12 20:00N 34°20' W 119°36'1 1.6
2017-Oct-12 19:30N 34°20' W 119°37'0 0.0
2017-Oct-12 19:00N 34°20' W 119°37'1 1.4
2017-Oct-12 18:29N 34°20' W 119°37'1 2.4
2017-Oct-12 18:00N 34°20' W 119°38'3 6.9
2017-Oct-12 17:30N 34°20' W 119°34'3 6.3
2017-Oct-12 17:00N 34°17' W 119°35'3 6.2
2017-Oct-12 16:30N 34°20' W 119°37'3 5.3
2017-Oct-12 16:00N 34°20' W 119°34'4 7.8
2017-Oct-12 15:29N 34°23' W 119°30'2 4.7
2017-Oct-12 15:00N 34°21' W 119°32'4 6.6
2017-Oct-12 14:26N 34°20' W 119°36'0 1.2
2017-Oct-12 14:00N 34°20' W 119°36'5 9.7
2017-Oct-12 13:29N 34°23' W 119°31'0 0.4
2017-Oct-12 13:00N 34°23' W 119°31'0 0.7
2017-Oct-12 12:26N 34°23' W 119°31'512.3
2017-Oct-12 12:00N 34°20' W 119°36'0 0.7
2017-Oct-12 11:30N 34°20' W 119°36'0 0.0
2017-Oct-12 11:00N 34°20' W 119°36'0 0.0
2017-Oct-12 10:30N 34°20' W 119°36'0 0.0
2017-Oct-12 09:59N 34°20' W 119°36'0 0.1
2017-Oct-12 09:30N 34°20' W 119°36'0 0.0
2017-Oct-12 09:00N 34°20' W 119°36'0 0.0
2017-Oct-12 08:30N 34°20' W 119°36'0 0.0
2017-Oct-12 08:00N 34°20' W 119°36'0 0.0
2017-Oct-12 07:30N 34°20' W 119°36'0 0.0
2017-Oct-12 07:00N 34°20' W 119°36'0 0.0
2017-Oct-12 06:30N 34°20' W 119°36'0 0.0
2017-Oct-12 06:00N 34°20' W 119°36'0 0.0
2017-Oct-12 05:30N 34°20' W 119°36'0 0.0
2017-Oct-12 04:59N 34°20' W 119°36'0 0.0
2017-Oct-12 04:29N 34°20' W 119°36'0 0.0
2017-Oct-12 03:59N 34°20' W 119°36'0 0.0
2017-Oct-12 03:30N 34°20' W 119°36'2 3.6
2017-Oct-12 03:00N 34°20' W 119°34'1 3.0
2017-Oct-12 02:30N 34°21' W 119°33'4 7.4
2017-Oct-12 02:01N 34°20' W 119°37'612.1
2017-Oct-12 01:30N 34°23' W 119°30'0 0.7
2017-Oct-12 00:59N 34°23' W 119°31'0 0.7
2017-Oct-12 00:30N 34°23' W 119°30'612.1
2017-Oct-12 00:00N 34°20' W 119°37'0 0.9
2017-Oct-11 23:30N 34°20' W 119°37'612.4
2017-Oct-11 23:00N 34°23' W 119°31'2 4.3
2017-Oct-11 22:30N 34°21' W 119°32'5 9.9
2017-Oct-11 22:00N 34°20' W 119°38'1 1.9
2017-Oct-11 21:30N 34°20' W 119°36'612.0
2017-Oct-11 21:00N 34°24' W 119°41'0 0.7
2017-Oct-11 20:30N 34°24' W 119°42'0 0.0
2017-Oct-11 19:59N 34°24' W 119°42'4 7.7
2017-Oct-11 19:30N 34°24' W 119°37'510.2
2017-Oct-11 19:00N 34°22' W 119°31'611.4
2017-Oct-11 18:30N 34°20' W 119°38'2 4.2
2017-Oct-11 18:00N 34°18' W 119°36'1 2.6
2017-Oct-11 17:30N 34°17' W 119°35'4 6.9
2017-Oct-11 17:00N 34°20' W 119°38'0 0.0
2017-Oct-11 00:00N 34°20' W 119°38'3 5.0
2017-Oct-10 23:30N 34°20' W 119°34'4 9.0
2017-Oct-10 23:00N 34°23' W 119°30'4 7.2
2017-Oct-10 22:30N 34°20' W 119°33'2 5.0
2017-Oct-10 22:00N 34°19' W 119°36'2 4.1
2017-Oct-10 21:30N 34°20' W 119°34'3 5.1
2017-Oct-10 21:01N 34°20' W 119°37'2 4.8
2017-Oct-10 20:30N 34°20' W 119°34'2 4.3
2017-Oct-10 20:00N 34°20' W 119°36'0 0.9
2017-Oct-10 19:30N 34°20' W 119°37'2 4.8
2017-Oct-10 19:01N 34°20' W 119°34'3 5.6
2017-Oct-10 18:31N 34°20' W 119°37'1 1.8
2017-Oct-10 18:00N 34°20' W 119°36'0 0.0
2017-Oct-10 17:31N 34°20' W 119°36'1 1.9
2017-Oct-10 17:00N 34°20' W 119°37'4 7.9
2017-Oct-10 16:30N 34°21' W 119°33'3 5.8
2017-Oct-10 15:59N 34°23' W 119°30'4 8.8
2017-Oct-10 15:30N 34°20' W 119°34'3 6.2
2017-Oct-10 15:00N 34°17' W 119°35'3 2.8
2017-Oct-10 14:01N 34°20' W 119°36'611.1
2017-Oct-10 13:30N 34°23' W 119°30'0 0.6
2017-Oct-10 12:57N 34°23' W 119°30'0 0.6
2017-Oct-10 12:30N 34°23' W 119°31'612.5
2017-Oct-10 12:00N 34°20' W 119°37'3 5.6
2017-Oct-10 11:30N 34°20' W 119°34'0 0.0
2017-Oct-10 11:00N 34°20' W 119°34'0 0.0
2017-Oct-10 10:30N 34°20' W 119°34'0 0.0
2017-Oct-10 10:00N 34°20' W 119°34'0 0.0
2017-Oct-10 09:30N 34°20' W 119°34'0 0.0
2017-Oct-10 09:00N 34°20' W 119°34'0 0.0
2017-Oct-10 08:30N 34°20' W 119°34'0 0.0
2017-Oct-10 08:00N 34°20' W 119°34'0 0.0
2017-Oct-10 07:30N 34°20' W 119°34'0 0.0
2017-Oct-10 07:00N 34°20' W 119°34'0 0.0
2017-Oct-10 06:30N 34°20' W 119°34'0 0.0
2017-Oct-10 05:59N 34°20' W 119°34'0 0.0
2017-Oct-10 05:28N 34°20' W 119°34'0 0.0
2017-Oct-10 05:00N 34°20' W 119°34'0 0.0
2017-Oct-10 04:29N 34°20' W 119°34'0 0.0
2017-Oct-10 04:00N 34°20' W 119°34'2 4.9
2017-Oct-10 03:30N 34°20' W 119°37'1 1.1
2017-Oct-10 03:00N 34°20' W 119°37'0 0.3
2017-Oct-10 02:30N 34°20' W 119°38'3 5.8
2017-Oct-10 02:00N 34°18' W 119°35'712.9
2017-Oct-10 01:30N 34°23' W 119°31'0 0.4
2017-Oct-10 01:00N 34°23' W 119°30'3 6.3
2017-Oct-10 00:31N 34°21' W 119°33'3 6.6
2017-Oct-10 00:00N 34°20' W 119°37'3 5.2
2017-Oct-09 23:31N 34°20' W 119°34'2 3.8
2017-Oct-09 23:00N 34°21' W 119°32'2 3.8
2017-Oct-09 22:30N 34°20' W 119°34'2 4.6
2017-Oct-09 22:00N 34°20' W 119°36'610.8
2017-Oct-09 21:30N 34°23' W 119°31'611.6
2017-Oct-09 21:00N 34°24' W 119°37'3 6.7
2017-Oct-09 20:29N 34°24' W 119°42'0 0.0
2017-Oct-09 19:58N 34°24' W 119°42'2 5.0
2017-Oct-09 19:30N 34°24' W 119°39'611.2
2017-Oct-09 19:00N 34°20' W 119°34'3 6.6
2017-Oct-09 18:29N 34°20' W 119°38'3 7.3
2017-Oct-09 18:00N 34°20' W 119°34'3 5.9
2017-Oct-09 17:30N 34°20' W 119°37'3 6.3
2017-Oct-09 17:00N 34°20' W 119°34'1 2.3
2017-Oct-09 16:30N 34°21' W 119°32'3 5.9
2017-Oct-09 16:00N 34°23' W 119°30'  

Dump ship's entire track history